Time;durP1;ratioP1;P1;durP2;ratioP2;P2;SDS_P1;SDS_P2;PMS_P1;PMS_P2;Temp;Humidity;BMP_temperature;BMP_pressure;BME280_temperature;BME280_humidity;BME280_pressure;Samples;Min_cycle;Max_cycle;Signal;HPM_P1;HPM_P2
2022/12/28 00:01:04;;;;;;;;;;;5.40;99.90;;;;;;5007260;28;216855;-72
2022/12/28 00:03:30;;;;;;;;;;;5.40;99.90;;;;;;5044082;28;19929;-71
2022/12/28 00:05:56;;;;;;;;;;;5.40;99.90;;;;;;5013860;28;156629;-72
2022/12/28 00:08:22;;;;;;;;;;;5.40;99.90;;;;;;5059674;28;19940;-71
2022/12/28 00:10:48;;;;;;;;;;;5.40;99.90;;;;;;5028960;28;115373;-73
2022/12/28 00:13:14;;;;;;;;;;;5.40;99.90;;;;;;5067482;28;19934;-71
2022/12/28 00:15:40;;;;;;;;;;;5.40;99.90;;;;;;5013710;28;206380;-70
2022/12/28 00:18:06;;;;;;;;;;;5.40;99.90;;;;;;5054914;28;19928;-73
2022/12/28 00:20:32;;;;;;;;;;;5.40;99.90;;;;;;5021445;28;208085;-70
2022/12/28 00:22:57;;;;;;;;;;;5.40;99.90;;;;;;5062582;28;19920;-71
2022/12/28 00:25:23;;;;;;;;;;;5.40;99.90;;;;;;5013967;28;193012;-71
2022/12/28 00:27:49;;;;;;;;;;;5.40;99.90;;;;;;5071032;28;19921;-72
2022/12/28 00:30:15;;;;;;;;;;;5.50;99.90;;;;;;5007593;28;217220;-71
2022/12/28 00:32:41;;;;;;;;;;;5.40;99.90;;;;;;5062529;28;19917;-72
2022/12/28 00:35:07;;;;;;;;;;;5.40;99.90;;;;;;5012821;28;207431;-72
2022/12/28 00:37:33;;;;;;;;;;;5.50;99.90;;;;;;5047230;28;19928;-73
2022/12/28 00:39:59;;;;;;;;;;;5.50;99.90;;;;;;5038447;28;208189;-72
2022/12/28 00:42:25;;;;;;;;;;;5.50;99.90;;;;;;5001513;28;253642;-71
2022/12/28 00:44:51;;;;;;;;;;;5.50;99.90;;;;;;5055451;28;19970;-71
2022/12/28 00:47:17;;;;;;;;;;;5.50;99.90;;;;;;4991092;28;214317;-72
2022/12/28 00:49:43;;;;;;;;;;;5.50;99.90;;;;;;5064123;28;19924;-72
2022/12/28 00:52:09;;;;;;;;;;;5.50;99.90;;;;;;5002304;28;187921;-72
2022/12/28 00:54:35;;;;;;;;;;;5.50;99.90;;;;;;5058066;28;19928;-72
2022/12/28 00:57:01;;;;;;;;;;;5.50;99.90;;;;;;4996854;28;158020;-71
2022/12/28 00:59:27;;;;;;;;;;;5.50;99.90;;;;;;5101731;28;19931;-70
2022/12/28 01:01:53;;;;;;;;;;;5.50;99.90;;;;;;5004894;27;155070;-72
2022/12/28 01:04:19;;;;;;;;;;;5.50;99.90;;;;;;5073946;28;19924;-72
2022/12/28 01:06:45;;;;;;;;;;;5.50;99.90;;;;;;5015026;28;216323;-70
2022/12/28 01:09:11;;;;;;;;;;;5.50;99.90;;;;;;5068997;28;19934;-71
2022/12/28 01:11:37;;;;;;;;;;;5.50;99.90;;;;;;5006438;28;198497;-71
2022/12/28 01:14:03;;;;;;;;;;;5.50;99.90;;;;;;5086805;28;20021;-72
2022/12/28 01:16:31;;;;;;;;;;;5.40;99.90;;;;;;5010942;28;197739;-72
2022/12/28 01:18:58;;;;;;;;;;;5.40;99.90;;;;;;5063533;28;19935;-71
2022/12/28 01:21:26;;;;;;;;;;;5.50;99.90;;;;;;4994990;28;210052;-72
2022/12/28 01:23:53;;;;;;;;;;;5.50;99.90;;;;;;5062214;28;19920;-71
2022/12/28 01:26:19;;;;;;;;;;;5.40;99.90;;;;;;5002499;28;174866;-71
2022/12/28 01:28:45;;;;;;;;;;;5.50;99.90;;;;;;5084515;28;19931;-72
2022/12/28 01:31:13;;;;;;;;;;;5.50;99.90;;;;;;5007304;28;206953;-71
2022/12/28 01:33:39;;;;;;;;;;;5.50;99.90;;;;;;5073915;28;19928;-70
2022/12/28 01:36:10;;;;;;;;;;;5.50;99.90;;;;;;5017065;28;208378;-71
2022/12/28 01:38:36;;;;;;;;;;;5.50;99.90;;;;;;5051925;28;19925;-71
2022/12/28 01:41:05;;;;;;;;;;;5.50;99.90;;;;;;5009095;28;221218;-71
2022/12/28 01:43:45;;;;;;;;;;;5.50;99.90;;;;;;5049357;28;19935;-71
2022/12/28 01:46:31;;;;;;;;;;;5.50;99.90;;;;;;5028612;28;112429;-71
2022/12/28 01:49:01;;;;;;;;;;;5.50;99.90;;;;;;5081352;28;19932;-72
2022/12/28 01:51:29;;;;;;;;;;;5.60;99.90;;;;;;4999719;28;122163;-71
2022/12/28 01:53:55;;;;;;;;;;;5.60;99.90;;;;;;5083915;28;19929;-71
2022/12/28 01:56:22;;;;;;;;;;;5.50;99.90;;;;;;5006770;28;82156;-71
2022/12/28 01:58:48;;;;;;;;;;;5.60;99.90;;;;;;5044453;28;19936;-70
2022/12/28 02:01:14;;;;;;;;;;;5.60;99.90;;;;;;5000297;28;207345;-71
2022/12/28 02:03:40;;;;;;;;;;;5.60;99.90;;;;;;5060607;28;20644;-72
2022/12/28 02:06:08;;;;;;;;;;;5.60;99.90;;;;;;5013364;28;184452;-72
2022/12/28 02:08:37;;;;;;;;;;;5.60;99.90;;;;;;5043537;28;19932;-72
2022/12/28 02:11:04;;;;;;;;;;;5.60;99.90;;;;;;5009207;28;159652;-70
2022/12/28 02:13:38;;;;;;;;;;;5.60;99.90;;;;;;5081110;28;19924;-71
2022/12/28 02:16:04;;;;;;;;;;;5.60;99.90;;;;;;4997459;27;227261;-70
2022/12/28 02:18:30;;;;;;;;;;;5.60;99.90;;;;;;5033023;28;19921;-71
2022/12/28 02:21:09;;;;;;;;;;;5.60;99.90;;;;;;4987878;28;181019;-70
2022/12/28 02:23:54;;;;;;;;;;;5.70;99.90;;;;;;5060838;28;19928;-71
2022/12/28 02:26:37;;;;;;;;;;;5.70;99.90;;;;;;5006079;28;209283;-71
2022/12/28 02:29:20;;;;;;;;;;;5.70;99.90;;;;;;5077698;28;19927;-70
2022/12/28 02:32:05;;;;;;;;;;;5.70;99.90;;;;;;5050221;28;207282;-73
2022/12/28 02:34:33;;;;;;;;;;;5.70;99.90;;;;;;5073908;28;19921;-72
2022/12/28 02:37:01;;;;;;;;;;;5.70;99.90;;;;;;4995966;28;206454;-71
2022/12/28 02:39:31;;;;;;;;;;;5.70;99.90;;;;;;5066393;28;19924;-72
2022/12/28 02:41:57;;;;;;;;;;;5.70;99.90;;;;;;5012084;28;196738;-71
2022/12/28 02:50:05;;;;;;;;;;;5.80;99.90;;;;;;5041894;28;209056;-72
2022/12/28 02:52:43;;;;;;;;;;;5.80;99.90;;;;;;5012546;28;20321;-72
2022/12/28 02:58:31;;;;;;;;;;;5.80;99.90;;;;;;5067204;28;20301;-72
2022/12/28 03:01:06;;;;;;;;;;;5.80;99.90;;;;;;4997224;28;207109;-72
2022/12/28 03:03:31;;;;;;;;;;;5.80;99.90;;;;;;5056332;28;19921;-73
2022/12/28 03:09:11;;;;;;;;;;;5.90;99.90;;;;;;5054188;28;19944;-73
2022/12/28 03:11:43;;;;;;;;;;;5.90;99.90;;;;;;5012086;28;207644;-73
2022/12/28 03:14:13;;;;;;;;;;;5.90;99.90;;;;;;5069369;28;20463;-72
2022/12/28 03:31:04;;;;;;;;;;;6.10;99.90;;;;;;5008294;28;207488;-69
2022/12/28 03:33:30;;;;;;;;;;;6.00;99.90;;;;;;5048715;28;19925;-71
2022/12/28 03:35:56;;;;;;;;;;;6.10;99.90;;;;;;5006335;28;165052;-73
2022/12/28 03:38:32;;;;;;;;;;;6.10;99.90;;;;;;5046499;28;19925;-71
2022/12/28 03:41:01;;;;;;;;;;;6.20;99.90;;;;;;5003560;28;208479;-74
2022/12/28 03:43:41;;;;;;;;;;;6.20;99.90;;;;;;5037838;28;20297;-71
2022/12/28 03:46:17;;;;;;;;;;;6.20;99.90;;;;;;5005825;28;229988;-72
2022/12/28 03:48:44;;;;;;;;;;;6.30;99.90;;;;;;5051703;28;19921;-73
2022/12/28 03:51:13;;;;;;;;;;;6.30;99.90;;;;;;4997535;28;226446;-70
2022/12/28 03:53:44;;;;;;;;;;;6.30;99.90;;;;;;5051263;28;19929;-70
2022/12/28 03:56:11;;;;;;;;;;;6.30;99.90;;;;;;4998452;28;192470;-71
2022/12/28 03:58:37;;;;;;;;;;;6.30;99.90;;;;;;5055036;28;19940;-71
2022/12/28 04:01:03;;;;;;;;;;;6.40;99.90;;;;;;4991794;28;188083;-72
2022/12/28 04:03:30;;;;;;;;;;;6.40;99.90;;;;;;5040876;28;20393;-71
2022/12/28 04:05:56;;;;;;;;;;;6.40;99.90;;;;;;4997027;28;208674;-72
2022/12/28 04:08:22;;;;;;;;;;;6.50;99.90;;;;;;5054781;28;19920;-68
2022/12/28 04:10:48;;;;;;;;;;;6.50;99.90;;;;;;5011806;28;210309;-72
2022/12/28 04:13:14;;;;;;;;;;;6.50;99.90;;;;;;5053352;28;20039;-70
2022/12/28 04:15:40;;;;;;;;;;;6.50;99.90;;;;;;4994735;28;206957;-70
2022/12/28 04:18:06;;;;;;;;;;;6.50;99.90;;;;;;5040231;28;20661;-69
2022/12/28 04:20:33;;;;;;;;;;;6.50;99.90;;;;;;4999707;28;149173;-69
2022/12/28 04:22:59;;;;;;;;;;;6.50;99.90;;;;;;5057196;28;19929;-69
2022/12/28 04:25:25;;;;;;;;;;;6.60;99.90;;;;;;4990109;28;209097;-72
2022/12/28 04:27:51;;;;;;;;;;;6.60;99.90;;;;;;5027159;28;19921;-69
2022/12/28 04:30:17;;;;;;;;;;;6.60;99.90;;;;;;5008539;28;208164;-69
2022/12/28 04:32:43;;;;;;;;;;;6.60;99.90;;;;;;5024891;28;19925;-71
2022/12/28 04:35:09;;;;;;;;;;;6.60;99.90;;;;;;4995888;28;207558;-70
2022/12/28 04:37:35;;;;;;;;;;;6.60;99.90;;;;;;5052557;28;19925;-71
2022/12/28 04:40:01;;;;;;;;;;;6.70;99.90;;;;;;5021057;28;206778;-69
2022/12/28 04:42:27;;;;;;;;;;;6.70;99.90;;;;;;5006306;28;19936;-73
2022/12/28 04:44:53;;;;;;;;;;;6.70;99.90;;;;;;5047767;28;19932;-70
2022/12/28 04:47:19;;;;;;;;;;;6.70;99.90;;;;;;4963045;28;206965;-70
2022/12/28 04:49:45;;;;;;;;;;;6.70;99.90;;;;;;5045213;28;19932;-70
2022/12/28 04:52:11;;;;;;;;;;;6.70;99.90;;;;;;4978845;28;211399;-70
2022/12/28 04:54:37;;;;;;;;;;;6.80;99.90;;;;;;5044833;28;19931;-70
2022/12/28 04:57:03;;;;;;;;;;;6.80;99.90;;;;;;4996548;28;207742;-70
2022/12/28 04:59:29;;;;;;;;;;;6.80;99.90;;;;;;5040949;28;19935;-69
2022/12/28 05:01:55;;;;;;;;;;;6.80;99.90;;;;;;4994441;28;208847;-70
2022/12/28 05:04:21;;;;;;;;;;;6.80;99.90;;;;;;5047049;28;19978;-72
2022/12/28 05:06:47;;;;;;;;;;;6.90;99.90;;;;;;4979953;28;209490;-70
2022/12/28 05:09:13;;;;;;;;;;;6.90;99.90;;;;;;5045978;28;19971;-70
2022/12/28 05:11:39;;;;;;;;;;;7.00;99.90;;;;;;4987894;28;142463;-71
2022/12/28 05:14:05;;;;;;;;;;;7.00;99.90;;;;;;5042226;28;20020;-70
2022/12/28 05:16:31;;;;;;;;;;;7.00;99.90;;;;;;4990432;28;209363;-70
2022/12/28 05:18:57;;;;;;;;;;;7.00;99.90;;;;;;5036133;28;19976;-70
2022/12/28 05:21:24;;;;;;;;;;;7.10;99.90;;;;;;4992690;28;208032;-70
2022/12/28 05:23:51;;;;;;;;;;;7.10;99.90;;;;;;5051148;28;19928;-69
2022/12/28 05:26:19;;;;;;;;;;;7.10;99.90;;;;;;5000808;28;211326;-70
2022/12/28 05:28:45;;;;;;;;;;;7.20;99.90;;;;;;5046400;28;19924;-70
2022/12/28 05:31:13;;;;;;;;;;;7.20;99.90;;;;;;4996028;28;206515;-70
2022/12/28 05:33:39;;;;;;;;;;;7.30;99.90;;;;;;5053757;28;19932;-72
2022/12/28 05:36:12;;;;;;;;;;;7.30;99.90;;;;;;4992288;28;208276;-71
2022/12/28 05:38:38;;;;;;;;;;;7.30;99.90;;;;;;5044542;28;19924;-71
2022/12/28 05:41:08;;;;;;;;;;;7.30;99.90;;;;;;5009876;28;177400;-71
2022/12/28 05:43:34;;;;;;;;;;;7.40;99.90;;;;;;5020796;28;19921;-70
2022/12/28 05:46:02;;;;;;;;;;;7.40;99.90;;;;;;4982910;28;207573;-71
2022/12/28 05:48:29;;;;;;;;;;;7.50;99.90;;;;;;5033063;28;19925;-70
2022/12/28 05:50:57;;;;;;;;;;;7.50;99.90;;;;;;4995301;28;207442;-70
2022/12/28 05:53:23;;;;;;;;;;;7.40;99.90;;;;;;5039715;28;19983;-71
2022/12/28 05:55:49;;;;;;;;;;;7.50;99.90;;;;;;4982534;28;208796;-70
2022/12/28 05:58:15;;;;;;;;;;;7.50;99.90;;;;;;5019975;28;19939;-70
2022/12/28 06:00:41;;;;;;;;;;;7.50;99.90;;;;;;4968231;28;177041;-71
2022/12/28 06:03:07;;;;;;;;;;;7.60;99.90;;;;;;5027086;28;19929;-71
2022/12/28 06:05:33;;;;;;;;;;;7.60;99.90;;;;;;4991518;28;207018;-70
2022/12/28 06:07:59;;;;;;;;;;;7.70;99.90;;;;;;5049640;28;19927;-71
2022/12/28 06:10:24;;;;;;;;;;;7.70;99.90;;;;;;4992065;28;207819;-71
2022/12/28 06:12:50;;;;;;;;;;;7.70;99.90;;;;;;5015107;28;19928;-71
2022/12/28 06:15:16;;;;;;;;;;;7.70;99.90;;;;;;4999859;28;207497;-71
2022/12/28 06:17:42;;;;;;;;;;;7.70;99.90;;;;;;5028612;28;19931;-71
2022/12/28 06:20:08;;;;;;;;;;;7.70;99.90;;;;;;4992517;28;208705;-70
2022/12/28 06:22:35;;;;;;;;;;;7.70;99.90;;;;;;5039378;28;19944;-71
2022/12/28 06:25:00;;;;;;;;;;;7.70;99.90;;;;;;5032795;28;225753;-69
2022/12/28 06:27:27;;;;;;;;;;;7.70;99.90;;;;;;4974318;28;19925;-72
2022/12/28 06:29:53;;;;;;;;;;;7.70;99.90;;;;;;5045051;28;20436;-70
2022/12/28 06:32:18;;;;;;;;;;;7.80;99.90;;;;;;4995635;28;206407;-70
2022/12/28 06:34:44;;;;;;;;;;;7.80;99.90;;;;;;5059387;28;19925;-71
2022/12/28 06:37:10;;;;;;;;;;;7.80;99.90;;;;;;4994546;28;208021;-71
2022/12/28 06:39:36;;;;;;;;;;;7.80;99.90;;;;;;5049849;28;19925;-71
2022/12/28 06:42:02;;;;;;;;;;;7.70;99.90;;;;;;4993046;28;208211;-70
2022/12/28 06:44:28;;;;;;;;;;;7.80;99.90;;;;;;5046073;28;20321;-71
2022/12/28 06:46:54;;;;;;;;;;;7.80;99.90;;;;;;5004175;28;151027;-71
2022/12/28 06:49:20;;;;;;;;;;;7.90;99.90;;;;;;5022375;28;20017;-72
2022/12/28 06:51:46;;;;;;;;;;;7.90;99.90;;;;;;4982999;28;236322;-70
2022/12/28 06:54:12;;;;;;;;;;;7.90;99.90;;;;;;5045495;28;20386;-70
2022/12/28 06:56:38;;;;;;;;;;;7.90;99.90;;;;;;5001575;28;174011;-72
2022/12/28 06:59:05;;;;;;;;;;;7.90;99.90;;;;;;5044017;28;20382;-71
2022/12/28 07:01:36;;;;;;;;;;;8.00;99.90;;;;;;4990173;28;209061;-70
2022/12/28 07:04:03;;;;;;;;;;;8.00;99.90;;;;;;5044538;28;19931;-70
2022/12/28 07:06:32;;;;;;;;;;;8.00;99.90;;;;;;4992730;28;207256;-71
2022/12/28 07:08:59;;;;;;;;;;;8.00;99.90;;;;;;5038026;28;19931;-71
2022/12/28 07:11:27;;;;;;;;;;;8.00;99.90;;;;;;4987511;28;212121;-70
2022/12/28 07:13:53;;;;;;;;;;;8.00;99.90;;;;;;5043290;28;20590;-70
2022/12/28 07:16:20;;;;;;;;;;;8.00;99.90;;;;;;4990298;28;215330;-70
2022/12/28 07:18:46;;;;;;;;;;;8.00;99.90;;;;;;5040540;28;19921;-70
2022/12/28 07:21:15;;;;;;;;;;;8.10;99.90;;;;;;4994164;28;207303;-70
2022/12/28 07:23:41;;;;;;;;;;;8.10;99.90;;;;;;5045751;28;19932;-69
2022/12/28 07:26:11;;;;;;;;;;;8.10;99.90;;;;;;4994928;28;209060;-69
2022/12/28 07:28:41;;;;;;;;;;;8.20;99.90;;;;;;5036119;28;19928;-69
2022/12/28 07:31:08;;;;;;;;;;;8.10;99.90;;;;;;5002646;28;205733;-70
2022/12/28 07:33:34;;;;;;;;;;;8.20;99.90;;;;;;5055019;28;19925;-71
2022/12/28 07:36:01;;;;;;;;;;;8.20;99.90;;;;;;5003943;28;172337;-70
2022/12/28 07:38:27;;;;;;;;;;;8.30;99.90;;;;;;5052590;28;19921;-71
2022/12/28 07:40:59;;;;;;;;;;;8.20;99.90;;;;;;5003419;28;204880;-70
2022/12/28 07:43:27;;;;;;;;;;;8.20;99.90;;;;;;5063577;28;19921;-71
2022/12/28 07:46:07;;;;;;;;;;;8.30;99.90;;;;;;5001374;28;208420;-71
2022/12/28 07:48:34;;;;;;;;;;;8.30;99.90;;;;;;5056302;28;19929;-70
2022/12/28 07:51:07;;;;;;;;;;;8.30;99.90;;;;;;5013694;28;211974;-71
2022/12/28 07:53:33;;;;;;;;;;;8.30;99.90;;;;;;5056394;28;19925;-70
2022/12/28 07:55:59;;;;;;;;;;;8.30;99.90;;;;;;4998249;28;208718;-70
2022/12/28 07:58:25;;;;;;;;;;;8.30;99.90;;;;;;5042439;28;19925;-70
2022/12/28 08:00:52;;;;;;;;;;;8.30;99.90;;;;;;4987967;28;208865;-69
2022/12/28 08:03:18;;;;;;;;;;;8.30;99.90;;;;;;5021411;28;19932;-70
2022/12/28 08:05:44;;;;;;;;;;;8.30;99.90;;;;;;5007806;28;206552;-71
2022/12/28 08:08:10;;;;;;;;;;;8.40;99.90;;;;;;5046587;28;19929;-70
2022/12/28 08:10:36;;;;;;;;;;;8.40;99.90;;;;;;4993938;28;207338;-71
2022/12/28 08:13:02;;;;;;;;;;;8.40;99.90;;;;;;5024985;28;19924;-70
2022/12/28 08:15:28;;;;;;;;;;;8.40;99.90;;;;;;5004298;28;208769;-69
2022/12/28 08:17:55;;;;;;;;;;;8.40;99.90;;;;;;5052533;28;21482;-70
2022/12/28 08:20:21;;;;;;;;;;;8.40;99.90;;;;;;5005021;28;209021;-70
2022/12/28 08:22:47;;;;;;;;;;;8.40;99.90;;;;;;5050092;28;20298;-71
2022/12/28 08:25:13;;;;;;;;;;;8.40;99.90;;;;;;5008014;28;206540;-70
2022/12/28 08:27:39;;;;;;;;;;;8.40;99.90;;;;;;5034508;28;19929;-71
2022/12/28 08:30:05;;;;;;;;;;;8.40;99.90;;;;;;5012232;28;207717;-71
2022/12/28 08:32:31;;;;;;;;;;;8.40;99.90;;;;;;5031017;28;20461;-70
2022/12/28 08:34:57;;;;;;;;;;;8.40;99.90;;;;;;5040342;28;207295;-71
2022/12/28 08:37:23;;;;;;;;;;;8.40;99.90;;;;;;5020402;28;126641;-70
2022/12/28 08:39:49;;;;;;;;;;;8.40;99.90;;;;;;5054065;28;20405;-72
2022/12/28 08:42:15;;;;;;;;;;;8.40;99.90;;;;;;5017736;28;219317;-70
2022/12/28 08:44:41;;;;;;;;;;;8.40;99.90;;;;;;5051907;28;19920;-71
2022/12/28 08:47:07;;;;;;;;;;;8.50;99.90;;;;;;5009542;28;239796;-71
2022/12/28 08:49:33;;;;;;;;;;;8.50;99.90;;;;;;5049956;28;19949;-70
2022/12/28 08:51:59;;;;;;;;;;;8.40;99.90;;;;;;4995520;28;144799;-71
2022/12/28 08:54:25;;;;;;;;;;;8.50;99.90;;;;;;5039010;28;20387;-71
2022/12/28 08:56:51;;;;;;;;;;;8.50;99.90;;;;;;4980531;28;178008;-72
2022/12/28 08:59:18;;;;;;;;;;;8.50;99.90;;;;;;5046828;28;19921;-72
2022/12/28 09:01:45;;;;;;;;;;;8.50;99.90;;;;;;4978997;28;206734;-72
2022/12/28 09:04:15;;;;;;;;;;;8.50;99.90;;;;;;5050122;28;19929;-73
2022/12/28 09:06:41;;;;;;;;;;;8.50;99.90;;;;;;4979257;28;221114;-74
2022/12/28 09:09:09;;;;;;;;;;;8.50;99.90;;;;;;5044543;28;19944;-72
2022/12/28 09:11:36;;;;;;;;;;;8.50;99.90;;;;;;4967697;28;182278;-73
2022/12/28 09:14:03;;;;;;;;;;;8.50;99.90;;;;;;5036748;28;20389;-73
2022/12/28 09:16:29;;;;;;;;;;;8.50;99.90;;;;;;4980258;28;208978;-74
2022/12/28 09:18:56;;;;;;;;;;;8.60;99.90;;;;;;5035045;28;20389;-74
2022/12/28 09:21:24;;;;;;;;;;;8.60;99.90;;;;;;4977651;28;133753;-72
2022/12/28 09:23:50;;;;;;;;;;;8.60;99.90;;;;;;5036456;28;19928;-72
2022/12/28 09:26:17;;;;;;;;;;;8.60;99.90;;;;;;4989393;28;211844;-72
2022/12/28 09:28:44;;;;;;;;;;;8.60;99.90;;;;;;5036869;28;19925;-72
2022/12/28 09:31:10;;;;;;;;;;;8.60;99.90;;;;;;4984517;28;208614;-73
2022/12/28 09:36:20;;;;;;;;;;;8.60;99.90;;;;;;4992178;28;214471;-72
2022/12/28 09:38:47;;;;;;;;;;;8.70;99.90;;;;;;5041068;28;19920;-72
2022/12/28 09:41:19;;;;;;;;;;;8.60;99.90;;;;;;4990947;28;198305;-71
2022/12/28 09:43:45;;;;;;;;;;;8.70;99.90;;;;;;5039292;28;19920;-72
2022/12/28 09:46:11;;;;;;;;;;;8.70;99.90;;;;;;4990677;28;167305;-72
2022/12/28 09:48:38;;;;;;;;;;;8.70;99.90;;;;;;5039405;28;19967;-72
2022/12/28 09:51:04;;;;;;;;;;;8.70;99.90;;;;;;4993264;28;215982;-73
2022/12/28 09:53:32;;;;;;;;;;;8.70;99.90;;;;;;5041098;28;19933;-72
2022/12/28 09:55:58;;;;;;;;;;;8.80;99.90;;;;;;5006549;28;222490;-72
2022/12/28 09:58:24;;;;;;;;;;;8.70;99.90;;;;;;5044018;28;19944;-71
2022/12/28 10:00:52;;;;;;;;;;;8.80;99.90;;;;;;4962687;28;223049;-73
2022/12/28 10:03:23;;;;;;;;;;;8.80;99.90;;;;;;5016040;28;19921;-74
2022/12/28 10:05:50;;;;;;;;;;;8.80;99.90;;;;;;4984169;28;222048;-72
2022/12/28 10:08:18;;;;;;;;;;;8.80;99.90;;;;;;5031480;28;19921;-73
2022/12/28 10:10:44;;;;;;;;;;;8.80;99.90;;;;;;4998395;28;207442;-73
2022/12/28 10:13:14;;;;;;;;;;;8.90;99.90;;;;;;5049097;28;19925;-71
2022/12/28 10:15:40;;;;;;;;;;;8.90;99.90;;;;;;5003985;28;216096;-70
2022/12/28 10:18:06;;;;;;;;;;;8.90;99.90;;;;;;5035402;28;19921;-70
2022/12/28 10:20:32;;;;;;;;;;;8.90;99.90;;;;;;4977473;28;195093;-70
2022/12/28 10:22:58;;;;;;;;;;;8.90;99.90;;;;;;5040048;28;19925;-69
2022/12/28 10:25:25;;;;;;;;;;;8.90;99.90;;;;;;5000132;28;207491;-71
2022/12/28 10:27:51;;;;;;;;;;;9.00;99.90;;;;;;5040138;28;19928;-71
2022/12/28 10:30:27;;;;;;;;;;;9.00;99.90;;;;;;4988701;28;207469;-70
2022/12/28 10:32:54;;;;;;;;;;;9.00;99.90;;;;;;5051261;28;19932;-74
2022/12/28 10:35:22;;;;;;;;;;;9.00;99.90;;;;;;4992715;28;132066;-71
2022/12/28 10:37:48;;;;;;;;;;;9.00;99.90;;;;;;5060475;28;19992;-71
2022/12/28 10:40:22;;;;;;;;;;;9.00;99.90;;;;;;4997090;28;210949;-71
2022/12/28 10:42:51;;;;;;;;;;;9.00;99.90;;;;;;5044746;28;20417;-71
2022/12/28 10:45:26;;;;;;;;;;;9.00;99.90;;;;;;5005981;28;210220;-71
2022/12/28 10:47:53;;;;;;;;;;;9.00;99.90;;;;;;5043773;28;19937;-70
2022/12/28 10:50:38;;;;;;;;;;;9.00;99.90;;;;;;5002168;28;207268;-72
2022/12/28 10:53:14;;;;;;;;;;;9.00;99.90;;;;;;5049069;28;19929;-70
2022/12/28 10:55:41;;;;;;;;;;;9.00;99.90;;;;;;5002358;28;212731;-70
2022/12/28 10:58:20;;;;;;;;;;;9.00;99.90;;;;;;5040560;28;19932;-70
2022/12/28 11:00:54;;;;;;;;;;;9.10;99.90;;;;;;5002378;28;120290;-70
2022/12/28 11:03:24;;;;;;;;;;;9.00;99.90;;;;;;5047633;28;19924;-71
2022/12/28 11:06:05;;;;;;;;;;;9.10;99.90;;;;;;4985646;28;220666;-72
2022/12/28 11:08:31;;;;;;;;;;;9.00;99.90;;;;;;5034399;28;19925;-71
2022/12/28 11:10:57;;;;;;;;;;;9.00;99.90;;;;;;5005575;28;178680;-71
2022/12/28 11:13:26;;;;;;;;;;;9.10;99.90;;;;;;5048210;28;19932;-71
2022/12/28 11:15:51;;;;;;;;;;;9.10;99.90;;;;;;5007629;28;168423;-71
2022/12/28 11:18:18;;;;;;;;;;;9.10;99.90;;;;;;5032148;28;19920;-70
2022/12/28 11:20:46;;;;;;;;;;;9.10;99.90;;;;;;4988221;28;206999;-71
2022/12/28 11:23:23;;;;;;;;;;;9.10;99.90;;;;;;5031982;28;19960;-71
2022/12/28 11:25:49;;;;;;;;;;;9.10;99.90;;;;;;4980684;28;221932;-70
2022/12/28 11:28:19;;;;;;;;;;;9.00;99.90;;;;;;5033388;28;20294;-71
2022/12/28 11:30:46;;;;;;;;;;;9.00;99.90;;;;;;4987627;28;207910;-71
2022/12/28 11:33:32;;;;;;;;;;;9.00;99.90;;;;;;5029692;28;19944;-70
2022/12/28 11:35:59;;;;;;;;;;;9.00;99.90;;;;;;4983085;28;208606;-70
2022/12/28 11:38:39;;;;;;;;;;;9.00;99.90;;;;;;5040975;28;19955;-72
2022/12/28 11:41:05;;;;;;;;;;;9.00;99.90;;;;;;4985317;28;206534;-70
2022/12/28 11:43:47;;;;;;;;;;;9.00;99.90;;;;;;5032857;28;19921;-69
2022/12/28 11:46:21;;;;;;;;;;;9.00;99.90;;;;;;5000217;28;206567;-72
2022/12/28 11:48:47;;;;;;;;;;;9.00;99.90;;;;;;5044742;28;19924;-70
2022/12/28 11:51:20;;;;;;;;;;;9.10;99.90;;;;;;5003358;28;209677;-71
2022/12/28 11:53:46;;;;;;;;;;;9.00;99.90;;;;;;5052076;28;19933;-72
2022/12/28 11:56:14;;;;;;;;;;;9.00;99.90;;;;;;4965729;28;216607;-72
2022/12/28 11:58:40;;;;;;;;;;;9.00;99.90;;;;;;5027949;28;19928;-71
2022/12/28 12:01:24;;;;;;;;;;;9.00;99.90;;;;;;4991663;28;206850;-71
2022/12/28 12:03:56;;;;;;;;;;;9.00;99.90;;;;;;5049362;28;19928;-72
2022/12/28 12:06:41;;;;;;;;;;;9.00;99.90;;;;;;4983912;28;145962;-71
2022/12/28 12:09:22;;;;;;;;;;;9.00;99.90;;;;;;5044568;28;20408;-72
2022/12/28 12:11:49;;;;;;;;;;;9.00;99.90;;;;;;4948723;28;152135;-70
2022/12/28 12:14:18;;;;;;;;;;;9.00;99.90;;;;;;5030592;28;19936;-72
2022/12/28 12:17:01;;;;;;;;;;;9.00;99.90;;;;;;4959746;28;206496;-71
2022/12/28 12:19:29;;;;;;;;;;;9.00;99.90;;;;;;5045643;28;20445;-72
2022/12/28 12:22:00;;;;;;;;;;;9.00;99.90;;;;;;4975345;28;212434;-71
2022/12/28 12:24:36;;;;;;;;;;;9.00;99.90;;;;;;5029890;28;19925;-71
2022/12/28 12:27:11;;;;;;;;;;;9.00;99.90;;;;;;4987878;28;215651;-71
2022/12/28 12:29:39;;;;;;;;;;;9.00;99.90;;;;;;5038607;28;19921;-70
2022/12/28 12:32:16;;;;;;;;;;;9.00;99.90;;;;;;4990313;28;243250;-72
2022/12/28 12:34:48;;;;;;;;;;;9.00;99.90;;;;;;5032412;28;19956;-71
2022/12/28 12:37:33;;;;;;;;;;;9.00;99.90;;;;;;4993820;28;206490;-72
2022/12/28 12:40:01;;;;;;;;;;;9.00;99.90;;;;;;5013223;28;225010;-71
2022/12/28 12:42:46;;;;;;;;;;;9.00;99.90;;;;;;4973095;28;20084;-72
2022/12/28 12:45:26;;;;;;;;;;;9.00;99.90;;;;;;4975574;28;210108;-71
2022/12/28 12:48:05;;;;;;;;;;;9.00;99.90;;;;;;5003636;28;20408;-71
2022/12/28 12:50:40;;;;;;;;;;;9.00;99.90;;;;;;4985594;28;221215;-71
2022/12/28 12:53:12;;;;;;;;;;;9.00;99.90;;;;;;5037918;28;19921;-71
2022/12/28 12:55:44;;;;;;;;;;;9.00;99.90;;;;;;4970002;28;211556;-71
2022/12/28 12:58:26;;;;;;;;;;;8.90;99.90;;;;;;5013371;28;19925;-71
2022/12/28 13:01:11;;;;;;;;;;;8.90;99.90;;;;;;4975282;28;195792;-70
2022/12/28 13:03:43;;;;;;;;;;;8.90;99.90;;;;;;5033678;28;19925;-71
2022/12/28 13:06:12;;;;;;;;;;;8.90;99.90;;;;;;4975661;28;209982;-73
2022/12/28 13:08:49;;;;;;;;;;;8.90;99.90;;;;;;5021947;28;19929;-70
2022/12/28 13:11:17;;;;;;;;;;;8.90;99.90;;;;;;4975612;28;209017;-70
2022/12/28 13:13:45;;;;;;;;;;;8.90;99.90;;;;;;5025872;28;19933;-69
2022/12/28 13:16:14;;;;;;;;;;;8.90;99.90;;;;;;4977348;28;207119;-70
2022/12/28 13:18:50;;;;;;;;;;;8.90;99.90;;;;;;5028464;28;19928;-70
2022/12/28 13:21:19;;;;;;;;;;;8.90;99.90;;;;;;4969248;28;210579;-72
2022/12/28 13:23:45;;;;;;;;;;;8.90;99.90;;;;;;5012076;28;19925;-70
2022/12/28 13:26:12;;;;;;;;;;;9.00;99.90;;;;;;4971487;28;144167;-69
2022/12/28 13:28:43;;;;;;;;;;;8.90;99.90;;;;;;5015353;28;19928;-70
2022/12/28 13:31:15;;;;;;;;;;;8.90;99.90;;;;;;4979036;28;140681;-72
2022/12/28 13:33:41;;;;;;;;;;;8.90;99.90;;;;;;5020780;28;19929;-71
2022/12/28 13:36:10;;;;;;;;;;;8.90;99.90;;;;;;4975962;28;208441;-70
2022/12/28 13:38:36;;;;;;;;;;;8.90;99.90;;;;;;5035627;28;20799;-71
2022/12/28 14:14:47;;;;;;;;;;;8.70;99.90;;;;;;5032339;28;19948;-70
2022/12/28 14:17:13;;;;;;;;;;;8.70;99.90;;;;;;4952667;28;206916;-71
2022/12/28 14:19:40;;;;;;;;;;;8.70;99.90;;;;;;5035916;28;19924;-70
2022/12/28 14:22:25;;;;;;;;;;;8.70;99.90;;;;;;4944634;28;210826;-70
2022/12/28 14:24:57;;;;;;;;;;;8.70;99.90;;;;;;5047132;28;20586;-70
2022/12/28 14:27:23;;;;;;;;;;;8.70;99.90;;;;;;4972746;28;204178;-70
2022/12/28 14:29:49;;;;;;;;;;;8.70;99.90;;;;;;5025061;28;19932;-70
2022/12/28 14:32:15;;;;;;;;;;;8.70;99.90;;;;;;4954486;28;220704;-70
2022/12/28 14:34:41;;;;;;;;;;;8.70;99.90;;;;;;5033144;28;19924;-70
2022/12/28 14:37:23;;;;;;;;;;;8.70;99.90;;;;;;4977215;28;207421;-70
2022/12/28 14:39:49;;;;;;;;;;;8.70;99.90;;;;;;5039550;28;19924;-70
2022/12/28 14:42:25;;;;;;;;;;;8.70;99.90;;;;;;4976440;28;224299;-71
2022/12/28 14:44:50;;;;;;;;;;;8.70;99.90;;;;;;5054816;28;19935;-70
2022/12/28 14:47:33;;;;;;;;;;;8.70;99.90;;;;;;4985628;28;208003;-70
2022/12/28 14:50:00;;;;;;;;;;;8.70;99.90;;;;;;4995956;28;207295;-70
2022/12/28 14:52:32;;;;;;;;;;;8.70;99.90;;;;;;4966502;28;19932;-71
2022/12/28 14:54:58;;;;;;;;;;;8.70;99.90;;;;;;5018910;28;207384;-70
2022/12/28 14:57:24;;;;;;;;;;;8.70;99.90;;;;;;4971258;28;84454;-71
2022/12/28 14:59:59;;;;;;;;;;;8.70;99.90;;;;;;5026673;28;19932;-71
2022/12/28 15:02:34;;;;;;;;;;;8.70;99.90;;;;;;4966978;28;210266;-70
2022/12/28 15:05:01;;;;;;;;;;;8.70;99.90;;;;;;5018106;28;214494;-69
2022/12/28 15:07:27;;;;;;;;;;;8.70;99.90;;;;;;4961930;28;19925;-70
2022/12/28 15:09:53;;;;;;;;;;;8.70;99.90;;;;;;5039526;28;19960;-70
2022/12/28 15:12:20;;;;;;;;;;;8.70;99.90;;;;;;4999571;28;207334;-70
2022/12/28 15:14:47;;;;;;;;;;;8.70;99.90;;;;;;5036887;28;20401;-70
2022/12/28 15:17:13;;;;;;;;;;;8.70;99.90;;;;;;4974828;28;213091;-70
2022/12/28 15:19:40;;;;;;;;;;;8.80;99.90;;;;;;5028839;28;19929;-69
2022/12/28 15:22:06;;;;;;;;;;;8.80;99.90;;;;;;4982535;28;207818;-69
2022/12/28 15:24:32;;;;;;;;;;;8.80;99.90;;;;;;5043122;28;20007;-69
2022/12/28 15:26:58;;;;;;;;;;;8.70;99.90;;;;;;4963414;28;210356;-69
2022/12/28 15:39:31;;;;;;;;;;;8.70;99.90;;;;;;5033614;28;20352;-69
2022/12/28 15:41:57;;;;;;;;;;;8.80;99.90;;;;;;5000870;28;206687;-70
2022/12/28 15:44:23;;;;;;;;;;;8.70;99.90;;;;;;5043692;28;19929;-69